createdAt,value
2018-07-09T00:00:43.549Z,8.30
2018-07-09T00:03:17.353Z,10.23
2018-07-09T00:05:52.081Z,8.37
2018-07-09T00:08:24.675Z,7.97
2018-07-09T00:11:04.625Z,8.03
2018-07-09T00:13:38.840Z,8.13
2018-07-09T00:16:17.675Z,9.57
2018-07-09T00:18:51.263Z,8.20
2018-07-09T00:21:24.151Z,8.73
2018-07-09T00:23:58.060Z,9.03
2018-07-09T00:26:31.658Z,10.70
2018-07-09T00:29:07.716Z,8.60
2018-07-09T00:31:41.190Z,7.93
2018-07-09T00:34:14.207Z,10.20
2018-07-09T00:36:48.112Z,8.30
2018-07-09T00:39:19.261Z,8.00
2018-07-09T00:41:53.780Z,8.50
2018-07-09T00:44:28.513Z,9.90
2018-07-09T00:47:01.165Z,8.23
2018-07-09T00:49:34.801Z,11.83
2018-07-09T00:52:07.071Z,11.60
2018-07-09T00:54:40.161Z,8.93
2018-07-09T00:57:12.908Z,9.00
2018-07-09T00:59:46.018Z,8.37
2018-07-09T01:05:41.149Z,7.60
2018-07-09T01:08:16.293Z,9.00
2018-07-09T01:10:59.215Z,8.47
2018-07-09T01:13:48.481Z,10.70
2018-07-09T01:16:21.592Z,8.23
2018-07-09T01:18:54.462Z,8.50
2018-07-09T01:21:28.447Z,8.47
2018-07-09T01:24:01.760Z,8.63
2018-07-09T01:26:34.642Z,9.63
2018-07-09T01:29:05.174Z,8.20
2018-07-09T01:31:35.395Z,8.70
2018-07-09T01:36:59.082Z,8.40
2018-07-09T01:39:31.958Z,8.43
2018-07-09T01:59:25.546Z,8.10
2018-07-09T02:01:57.611Z,8.90
2018-07-09T02:04:29.984Z,8.60
2018-07-09T02:07:05.019Z,8.33
2018-07-09T02:09:37.882Z,10.47
2018-07-09T02:12:11.094Z,8.53
2018-07-09T02:14:45.312Z,8.50
2018-07-09T02:17:27.091Z,8.03
2018-07-09T02:20:00.190Z,9.17
2018-07-09T02:22:33.146Z,8.73
2018-07-09T02:25:06.257Z,8.80
2018-07-09T02:27:39.563Z,9.13
2018-07-09T02:30:12.547Z,9.67
2018-07-09T02:32:45.435Z,7.77
2018-07-09T02:35:18.725Z,8.60
2018-07-09T02:37:52.478Z,7.83
2018-07-09T02:40:24.565Z,8.07
2018-07-09T02:42:56.648Z,8.27
2018-07-09T02:45:27.551Z,7.77
2018-07-09T02:48:00.064Z,8.73
2018-07-09T02:50:31.439Z,7.27
2018-07-09T02:53:04.426Z,7.87
2018-07-09T02:55:37.003Z,9.50
2018-07-09T02:58:09.069Z,8.40
2018-07-09T03:00:42.043Z,7.83
2018-07-09T03:06:40.564Z,7.30
2018-07-09T03:09:30.634Z,8.13
2018-07-09T03:11:58.498Z,9.03
2018-07-09T03:14:35.093Z,8.20
2018-07-09T03:17:10.765Z,8.17
2018-07-09T03:19:38.535Z,8.60
2018-07-09T03:22:09.697Z,9.03
2018-07-09T03:24:37.489Z,9.23
2018-07-09T03:27:05.421Z,9.17
2018-07-09T03:29:35.249Z,8.00
2018-07-09T03:32:03.109Z,8.17
2018-07-09T03:34:44.412Z,8.70
2018-07-09T03:37:13.310Z,8.27
2018-07-09T03:39:41.262Z,8.33
2018-07-09T03:42:09.093Z,8.20
2018-07-09T03:44:37.073Z,8.77
2018-07-09T03:47:05.153Z,8.30
2018-07-09T03:49:33.070Z,9.63
2018-07-09T03:52:00.873Z,8.70
2018-07-09T03:54:28.653Z,8.77
2018-07-09T03:56:57.076Z,8.23
2018-07-09T03:59:25.193Z,9.07
2018-07-09T04:01:52.985Z,8.50
2018-07-09T04:04:48.288Z,8.60
2018-07-09T04:07:16.405Z,7.80
2018-07-09T04:09:44.161Z,9.13
2018-07-09T04:22:17.990Z,11.20
2018-07-09T04:24:45.784Z,8.30
2018-07-09T04:27:13.621Z,8.90
2018-07-09T04:29:41.457Z,8.33
2018-07-09T04:32:09.414Z,8.30
2018-07-09T04:34:45.589Z,7.87
2018-07-09T04:37:13.459Z,8.93
2018-07-09T04:39:41.354Z,8.27
2018-07-09T04:42:09.154Z,8.40
2018-07-09T04:44:36.918Z,9.67
2018-07-09T04:47:04.791Z,8.63
2018-07-09T04:49:32.602Z,8.20
2018-07-09T04:52:00.353Z,8.10
2018-07-09T04:54:28.138Z,7.53
2018-07-09T04:56:55.961Z,8.63
2018-07-09T04:59:23.747Z,7.57
2018-07-09T05:01:51.497Z,7.27
2018-07-09T05:04:19.370Z,7.43
2018-07-09T05:06:47.162Z,7.50
2018-07-09T05:09:15.001Z,9.23
2018-07-09T05:11:50.133Z,8.50
2018-07-09T05:14:18.057Z,7.63
2018-07-09T05:16:45.879Z,9.50
2018-07-09T05:19:15.867Z,8.73
2018-07-09T05:21:43.826Z,7.53
2018-07-09T05:24:11.640Z,8.27
2018-07-09T05:26:39.426Z,7.63
2018-07-09T05:29:07.232Z,7.53
2018-07-09T05:31:35.059Z,10.03
2018-07-09T05:34:02.897Z,7.53
2018-07-09T05:36:30.685Z,7.87
2018-07-09T05:39:04.845Z,6.80
2018-07-09T05:41:32.651Z,7.77
2018-07-09T05:44:00.497Z,7.63
2018-07-09T05:46:28.346Z,7.70
2018-07-09T05:48:57.105Z,8.83
2018-07-09T05:51:24.880Z,7.13
2018-07-09T05:53:52.753Z,6.90
2018-07-09T05:56:20.557Z,6.73
2018-07-09T05:58:49.747Z,7.73
2018-07-09T06:01:17.747Z,9.10
2018-07-09T06:03:46.601Z,7.93
2018-07-09T06:06:14.658Z,7.93
2018-07-09T06:08:42.447Z,6.87
2018-07-09T06:11:10.275Z,6.97
2018-07-09T06:13:38.046Z,6.97
2018-07-09T06:16:06.245Z,6.93
2018-07-09T06:18:34.321Z,7.07
2018-07-09T06:21:02.093Z,8.67
2018-07-09T06:23:29.853Z,7.20
2018-07-09T06:25:58.029Z,6.57
2018-07-09T06:28:25.925Z,6.20
2018-07-09T06:30:53.755Z,8.07
2018-07-09T06:33:21.879Z,6.60
2018-07-09T06:35:49.669Z,6.87
2018-07-09T06:38:17.565Z,5.90
2018-07-09T06:40:45.977Z,6.60
2018-07-09T06:43:13.761Z,6.50
2018-07-09T06:45:41.793Z,5.77
2018-07-09T06:48:09.617Z,6.67
2018-07-09T06:50:37.389Z,6.27
2018-07-09T06:53:05.460Z,6.67
2018-07-09T06:55:33.220Z,8.93
2018-07-09T06:58:01.073Z,6.43
2018-07-09T07:00:28.846Z,7.17
2018-07-09T07:02:57.318Z,6.93
2018-07-09T07:05:25.162Z,7.00
2018-07-09T07:07:53.041Z,7.13
2018-07-09T07:10:20.830Z,9.43
2018-07-09T07:12:48.625Z,6.47
2018-07-09T07:15:24.549Z,8.95
2018-07-09T07:17:52.326Z,8.23
2018-07-09T07:20:20.163Z,7.77
2018-07-09T07:22:47.980Z,8.03
2018-07-09T07:25:15.838Z,6.87
2018-07-09T07:27:43.744Z,9.48
2018-07-09T07:30:11.540Z,6.62
2018-07-09T07:32:39.444Z,7.53
2018-07-09T07:35:07.321Z,7.58
2018-07-09T07:37:35.163Z,6.50
2018-07-09T07:40:03.237Z,6.80
2018-07-09T07:42:31.124Z,6.00
2018-07-09T07:45:01.379Z,7.45
2018-07-09T07:47:29.273Z,8.25
2018-07-09T07:49:57.072Z,6.83
2018-07-09T07:52:24.893Z,9.38
2018-07-09T07:54:52.677Z,9.40
2018-07-09T07:57:20.481Z,6.58
2018-07-09T07:59:48.277Z,7.08
2018-07-09T08:02:16.293Z,6.92
2018-07-09T08:04:44.071Z,6.83
2018-07-09T08:07:11.884Z,7.20
2018-07-09T08:09:39.813Z,6.08
2018-07-09T08:13:00.542Z,6.08
2018-07-09T08:14:35.528Z,9.55
2018-07-09T08:17:03.301Z,6.25
2018-07-09T08:19:31.117Z,6.22
2018-07-09T08:21:58.961Z,6.22
2018-07-09T08:24:31.448Z,5.85
2018-07-09T08:27:08.208Z,6.42
2018-07-09T08:29:36.009Z,7.15
2018-07-09T08:32:12.565Z,8.80
2018-07-09T08:34:40.354Z,6.67
2018-07-09T08:37:08.141Z,6.60
2018-07-09T08:39:35.909Z,6.17
2018-07-09T08:42:03.784Z,7.15
2018-07-09T08:44:31.577Z,7.05
2018-07-09T08:46:59.438Z,6.85
2018-07-09T08:49:27.234Z,7.58
2018-07-09T08:51:55.023Z,6.30
2018-07-09T08:54:30.997Z,5.92
2018-07-09T08:57:02.265Z,6.85
2018-07-09T08:59:34.436Z,7.35
2018-07-09T09:02:05.568Z,6.42
2018-07-09T09:04:38.433Z,7.05
2018-07-09T09:07:11.241Z,6.87
2018-07-09T09:09:45.050Z,8.05
2018-07-09T09:12:17.524Z,6.47
2018-07-09T09:14:48.872Z,7.42
2018-07-09T09:17:21.655Z,6.85
2018-07-09T09:19:54.340Z,8.05
2018-07-09T09:22:25.685Z,7.20
2018-07-09T09:25:00.782Z,6.65
2018-07-09T09:27:31.764Z,7.28
2018-07-09T09:30:03.518Z,6.62
2018-07-09T09:32:34.229Z,6.53
2018-07-09T09:35:06.531Z,7.10
2018-07-09T09:37:43.403Z,6.92
2018-07-09T09:40:15.467Z,7.03
2018-07-09T09:42:48.412Z,8.20
2018-07-09T09:45:20.314Z,6.97
2018-07-09T09:47:52.385Z,7.15
2018-07-09T09:50:23.527Z,7.42
2018-07-09T09:52:54.975Z,9.08
2018-07-09T09:55:28.450Z,7.87
2018-07-09T09:58:01.205Z,7.25
2018-07-09T10:00:38.277Z,7.08
2018-07-09T10:03:09.412Z,7.45
2018-07-09T10:22:27.640Z,7.72
2018-07-09T10:25:00.215Z,8.38
2018-07-09T10:27:31.871Z,7.70
2018-07-09T10:30:03.425Z,8.30
2018-07-09T10:32:35.252Z,8.60
2018-07-09T10:35:08.277Z,8.43
2018-07-09T10:37:40.265Z,6.97
2018-07-09T10:40:08.430Z,8.08
2018-07-09T10:42:37.338Z,6.95
2018-07-09T10:45:06.262Z,8.58
2018-07-09T10:47:34.071Z,6.28
2018-07-09T10:50:01.921Z,7.35
2018-07-09T10:52:30.829Z,7.97
2018-07-09T10:54:58.605Z,7.25
2018-07-09T10:57:31.464Z,6.47
2018-07-09T11:00:19.497Z,6.33
2018-07-09T11:02:47.319Z,6.92
2018-07-09T11:05:15.148Z,6.67
2018-07-09T11:07:42.965Z,8.00
2018-07-09T11:10:10.874Z,10.20
2018-07-09T11:12:39.878Z,6.17
2018-07-09T11:15:07.714Z,6.05
2018-07-09T11:17:35.674Z,7.78
2018-07-09T11:20:04.617Z,7.75
2018-07-09T11:22:32.463Z,7.47
2018-07-09T11:25:00.230Z,8.03
2018-07-09T11:27:28.033Z,5.87
2018-07-09T11:29:55.882Z,6.92
2018-07-09T11:32:23.784Z,7.15
2018-07-09T11:34:51.553Z,5.53
2018-07-09T11:37:19.386Z,4.80
2018-07-09T11:56:36.010Z,4.12
2018-07-09T12:15:51.469Z,4.62
2018-07-09T12:35:08.365Z,3.98
2018-07-09T12:37:40.052Z,5.47
2018-07-09T12:40:13.347Z,4.87
2018-07-09T12:42:46.332Z,5.35
2018-07-09T12:45:18.500Z,3.42
2018-07-09T12:47:49.666Z,4.70
2018-07-09T12:50:24.579Z,5.22
2018-07-09T12:52:57.458Z,4.62
2018-07-09T13:15:30.542Z,4.53
2018-07-09T13:17:58.333Z,4.83
2018-07-09T13:20:26.365Z,5.40
2018-07-09T13:22:54.145Z,3.00
2018-07-09T13:25:21.969Z,3.65
2018-07-09T13:27:49.753Z,4.28
2018-07-09T13:30:17.723Z,3.77
2018-07-09T13:32:45.577Z,4.33
2018-07-09T13:35:13.544Z,3.30
2018-07-09T13:37:50.008Z,4.50
2018-07-09T13:40:17.986Z,4.00
2018-07-09T13:42:45.946Z,4.43
2018-07-09T13:45:13.793Z,4.03
2018-07-09T13:47:41.682Z,2.97
2018-07-09T13:50:09.484Z,3.20
2018-07-09T13:52:46.176Z,4.63
2018-07-09T13:55:18.063Z,3.23
2018-07-09T13:57:46.409Z,4.67
2018-07-09T14:00:14.229Z,3.20
2018-07-09T14:02:42.085Z,4.80
2018-07-09T14:05:09.877Z,3.13
2018-07-09T14:07:45.837Z,3.83
2018-07-09T14:10:13.641Z,2.67
2018-07-09T14:12:41.541Z,3.00
2018-07-09T14:15:09.413Z,3.27
2018-07-09T14:17:37.254Z,3.17
2018-07-09T14:20:22.385Z,5.60
2018-07-09T14:22:50.249Z,5.20
2018-07-09T14:25:18.616Z,6.33
2018-07-09T14:27:50.919Z,4.87
2018-07-09T14:30:23.674Z,4.70
2018-07-09T14:32:55.869Z,3.93
2018-07-09T14:35:29.471Z,5.00
2018-07-09T15:08:07.005Z,3.40
2018-07-09T15:10:39.070Z,3.63
2018-07-09T15:29:52.087Z,3.73
2018-07-09T15:32:27.454Z,3.27
2018-07-09T15:51:43.603Z,2.97
2018-07-09T15:54:15.000Z,3.47
2018-07-09T15:56:46.150Z,3.70
2018-07-09T15:59:18.113Z,3.20
2018-07-09T16:01:51.816Z,2.80
2018-07-09T16:04:24.257Z,3.77
2018-07-09T16:06:57.634Z,3.40
2018-07-09T16:10:12.094Z,3.40
2018-07-09T16:19:53.635Z,4.63
2018-07-09T16:22:26.609Z,2.83
2018-07-09T16:25:00.197Z,4.40
2018-07-09T16:27:33.197Z,3.30
2018-07-09T16:30:05.875Z,3.93
2018-07-09T16:32:38.046Z,2.70
2018-07-09T16:35:11.850Z,4.43
2018-07-09T16:37:45.450Z,3.93
2018-07-09T16:40:18.436Z,3.03
2018-07-09T16:42:51.117Z,4.03
2018-07-09T16:45:24.207Z,2.57
2018-07-09T16:47:56.781Z,2.80
2018-07-09T16:50:29.770Z,2.97
2018-07-09T16:53:02.420Z,3.93
2018-07-09T16:55:35.082Z,2.67
2018-07-09T16:58:08.089Z,5.57
2018-07-09T17:00:49.190Z,2.80
2018-07-09T17:03:30.680Z,6.43
2018-07-09T17:06:03.766Z,3.47
2018-07-09T17:08:45.660Z,3.33
2018-07-09T17:11:19.234Z,4.63
2018-07-09T17:13:53.376Z,2.83
2018-07-09T17:16:26.975Z,4.73
2018-07-09T17:18:59.961Z,4.73
2018-07-09T17:21:31.560Z,3.93
2018-07-09T17:24:05.833Z,2.40
2018-07-09T17:26:39.823Z,2.80
2018-07-09T17:29:13.342Z,3.27
2018-07-09T17:31:57.399Z,3.07
2018-07-09T17:34:30.478Z,4.23
2018-07-09T17:37:03.168Z,4.40
2018-07-09T17:39:36.687Z,4.37
2018-07-09T17:42:10.053Z,5.07
2018-07-09T17:44:43.652Z,4.17
2018-07-09T17:50:49.361Z,5.30
2018-07-09T17:53:17.437Z,2.90
2018-07-09T17:56:07.317Z,3.07
2018-07-09T17:58:35.238Z,3.40
2018-07-09T18:01:03.053Z,3.60
2018-07-09T18:03:30.901Z,4.30
2018-07-09T18:05:58.750Z,6.53
2018-07-09T18:08:26.641Z,3.80
2018-07-09T18:10:54.629Z,3.20
2018-07-09T18:13:22.690Z,5.43
2018-07-09T18:15:50.721Z,3.33
2018-07-09T18:25:14.036Z,3.90
2018-07-09T18:37:50.633Z,3.37
2018-07-09T18:40:22.291Z,3.00
2018-07-09T18:42:50.433Z,4.47
2018-07-09T18:45:20.682Z,4.43
2018-07-09T18:47:51.724Z,4.07
2018-07-09T18:50:21.962Z,3.27
2018-07-09T18:52:49.773Z,4.97
2018-07-09T18:55:18.394Z,3.13
2018-07-09T18:57:47.231Z,2.97
2018-07-09T19:00:16.573Z,4.20
2018-07-09T19:02:44.829Z,4.07
2018-07-09T19:05:12.666Z,2.60
2018-07-09T19:07:49.153Z,3.83
2018-07-09T19:10:17.194Z,3.47
2018-07-09T19:12:54.729Z,6.97
2018-07-09T19:15:32.174Z,4.90
2018-07-09T19:18:12.270Z,7.30
2018-07-09T19:21:17.645Z,4.63
2018-07-09T19:23:44.627Z,5.20
2018-07-09T19:29:36.451Z,5.37
2018-07-09T19:32:03.081Z,4.10
2018-07-09T19:34:29.697Z,5.23
2018-07-09T19:36:56.460Z,4.83
2018-07-09T19:39:22.978Z,4.07
2018-07-09T19:41:50.213Z,4.90
2018-07-09T19:44:16.818Z,6.00
2018-07-09T19:46:43.494Z,4.40
2018-07-09T19:49:10.090Z,5.93
2018-07-09T19:51:36.789Z,5.13
2018-07-09T19:54:03.402Z,3.90
2018-07-09T19:56:31.078Z,4.80
2018-07-09T19:59:10.825Z,4.20
2018-07-09T20:01:57.872Z,7.80
2018-07-09T20:07:46.337Z,4.77
2018-07-09T20:10:18.485Z,5.10
2018-07-09T20:12:50.547Z,3.80
2018-07-09T20:15:22.697Z,6.90
2018-07-09T20:17:49.454Z,4.97
2018-07-09T20:20:16.082Z,4.00
2018-07-09T20:22:42.723Z,5.47
2018-07-09T20:25:09.371Z,4.37
2018-07-09T20:27:37.870Z,3.43
2018-07-09T20:30:04.534Z,3.37
2018-07-09T20:32:32.315Z,3.50
2018-07-09T20:34:58.890Z,5.43
2018-07-09T20:37:25.498Z,4.07
2018-07-09T20:39:53.678Z,5.43
2018-07-09T20:42:20.297Z,3.37
2018-07-09T20:44:48.618Z,3.70
2018-07-09T20:47:17.232Z,3.73
2018-07-09T20:49:45.621Z,4.70
2018-07-09T20:52:12.317Z,5.53
2018-07-09T20:54:38.973Z,6.30
2018-07-09T20:57:14.503Z,4.07
2018-07-09T20:59:50.556Z,4.43
2018-07-09T21:02:17.199Z,4.10
2018-07-09T21:04:43.896Z,6.10
2018-07-09T21:07:20.861Z,4.87
2018-07-09T21:09:56.645Z,6.37
2018-07-09T21:12:46.113Z,5.60
2018-07-09T21:15:12.752Z,3.70
2018-07-09T21:17:39.341Z,5.40
2018-07-09T21:20:06.897Z,6.87
2018-07-09T21:22:33.534Z,4.07
2018-07-09T21:25:00.185Z,3.97
2018-07-09T21:27:26.785Z,5.00
2018-07-09T21:29:53.425Z,3.40
2018-07-09T21:32:28.765Z,4.50
2018-07-09T21:34:55.421Z,5.53
2018-07-09T21:37:22.075Z,3.57
2018-07-09T21:39:54.861Z,3.40
2018-07-09T21:42:36.722Z,4.13
2018-07-09T21:45:03.414Z,4.97
2018-07-09T21:47:31.149Z,3.63
2018-07-09T21:49:58.353Z,4.20
2018-07-09T21:52:24.945Z,5.20
2018-07-09T21:54:51.577Z,3.50
2018-07-09T21:57:18.570Z,4.40
2018-07-09T21:59:45.174Z,4.07
2018-07-09T22:02:11.778Z,6.90
2018-07-09T22:04:38.407Z,5.10
2018-07-09T22:07:05.022Z,3.53
2018-07-09T22:09:31.683Z,3.67
2018-07-09T22:12:06.722Z,3.47
2018-07-09T22:14:33.398Z,4.43
2018-07-09T22:16:59.973Z,5.20
2018-07-09T22:19:26.593Z,3.57
2018-07-09T22:21:53.514Z,3.60
2018-07-09T22:24:22.741Z,4.03
2018-07-09T22:26:49.325Z,4.20
2018-07-09T22:29:16.122Z,4.00
2018-07-09T22:31:43.913Z,6.33
2018-07-09T22:34:11.759Z,4.33
2018-07-09T22:36:39.597Z,3.47
2018-07-09T22:39:10.337Z,3.50
2018-07-09T22:41:42.502Z,3.43
2018-07-09T22:44:17.785Z,4.40
2018-07-09T22:46:46.002Z,3.87
2018-07-09T22:49:14.026Z,3.83
2018-07-09T22:51:50.950Z,3.40
2018-07-09T22:54:18.812Z,3.70
2018-07-09T22:56:46.831Z,4.40
2018-07-09T22:59:14.633Z,3.57
2018-07-09T23:01:42.404Z,4.60
2018-07-09T23:04:10.285Z,3.47
2018-07-09T23:06:38.126Z,4.23
2018-07-09T23:12:32.894Z,3.70
2018-07-09T23:17:14.131Z,3.93
2018-07-09T23:21:55.319Z,3.83
2018-07-09T23:24:22.691Z,4.30
2018-07-09T23:26:49.379Z,4.17
2018-07-09T23:29:16.343Z,4.73
2018-07-09T23:31:43.171Z,4.40
2018-07-09T23:34:18.755Z,3.90
2018-07-09T23:36:45.492Z,5.93
2018-07-09T23:39:15.767Z,3.70
2018-07-09T23:41:44.948Z,4.67
2018-07-09T23:44:15.175Z,4.13
2018-07-09T23:46:45.609Z,4.97
2018-07-09T23:49:12.316Z,6.30
2018-07-09T23:51:38.860Z,4.00
2018-07-09T23:54:05.971Z,6.37
2018-07-09T23:58:50.643Z,3.97
